Terminal Aerodrome Forecast
Issued by NWS Twin Cities, MN

Home | Current Version | Previous Version | Graphics & Text | Print | Product List | Glossary On
Versions: 1 2 3 4 5 6 7 8 9 10 11 12 13 14 15 16 17 18 19
000
FTUS43 KMPX 260939 AAA
TAFEAU
TAF AMD
KEAU 260939Z 2610/2706 VRB03KT 4SM BR SCT002 BKN100
      TEMPO 2610/2613 1SM BR BKN002
     FM261300 24004KT 4SM BR SCT008 OVC012
     FM261500 26003KT P6SM SCT012 OVC050
     FM261800 24005KT 6SM -SHRA SCT012 OVC025
     FM262000 33005KT 4SM -TSRA BR OVC025CB
     FM270000 35004KT 3SM BR VCSH OVC020=

USA.gov is the U.S. government's official web portal to all federal, state and local government web resources and services.